ARK weather

Arusha Airport
Arusha, Arusha Region, Tanzania

Public forecast

Using degrees Celsius for public forecast. Weather courtesy of forecast.io.

Current aviation weather report (METAR) for Arusha Airport

Retrieved 2019/11/13 11:00 UTC (20 seconds ago):

HTAR 131100Z 12010KT 9999 SCT030 FEW032CB 25/19 Q1015 NOSIG

Aviation forecast (TAF) for Arusha Airport

Retrieved 2019/11/13 06:18 UTC (5 hours ago):

TAF HTAR 130500Z 1306/1406 12006KT 9999 BKN025 TEMPO 1311/1313 SHRA FEW028CB BKN029 BECMG 1314/1317 FEW030